Time;durP1;ratioP1;P1;durP2;ratioP2;P2;SDS_P1;SDS_P2;PMS_P1;PMS_P2;Temp;Humidity;BMP_temperature;BMP_pressure;BME280_temperature;BME280_humidity;BME280_pressure;Samples;Min_cycle;Max_cycle;Signal;HPM_P1;HPM_P2
2022/11/26 00:00:19;;;;;;;81.82;58.65;;;;;;;;;;5075237;28;20020;-72
2022/11/26 00:02:45;;;;;;;68.72;50.95;;;;;;;;;;5077385;28;20026;-72
2022/11/26 00:05:12;;;;;;;52.13;43.63;;;;;;;;;;5077012;28;20352;-72
2022/11/26 00:07:37;;;;;;;64.70;54.05;;;;;;;;;;5074571;28;20073;-73
2022/11/26 00:10:03;;;;;;;67.13;56.38;;;;;;;;;;5075463;28;20409;-72
2022/11/26 00:12:33;;;;;;;68.35;58.25;;;;;;;;;;5075941;28;20029;-73
2022/11/26 00:14:59;;;;;;;212.60;154.20;;;;;;;;;;5078314;28;20024;-73
2022/11/26 00:17:24;;;;;;;196.32;138.45;;;;;;;;;;5077704;28;20383;-72
2022/11/26 00:19:49;;;;;;;188.20;130.77;;;;;;;;;;5078511;28;20043;-71
2022/11/26 00:22:18;;;;;;;166.45;127.15;;;;;;;;;;5076658;28;20450;-71
2022/11/26 00:24:43;;;;;;;195.30;148.65;;;;;;;;;;5075860;28;20062;-72
2022/11/26 00:27:09;;;;;;;195.80;149.60;;;;;;;;;;5078319;28;20032;-73
2022/11/26 00:29:34;;;;;;;145.63;111.72;;;;;;;;;;5078732;28;23472;-72
2022/11/26 00:32:00;;;;;;;136.13;106.88;;;;;;;;;;5081361;28;20457;-72
2022/11/26 00:34:25;;;;;;;124.88;106.80;;;;;;;;;;5078171;28;20036;-74
2022/11/26 00:36:50;;;;;;;110.88;90.38;;;;;;;;;;5079041;28;20082;-71
2022/11/26 00:39:17;;;;;;;81.05;68.03;;;;;;;;;;5083567;28;20024;-73
2022/11/26 00:41:44;;;;;;;116.05;87.82;;;;;;;;;;5081440;28;20020;-73
2022/11/26 00:44:16;;;;;;;177.00;116.45;;;;;;;;;;5079783;28;20414;-72
2022/11/26 00:46:41;;;;;;;145.02;103.00;;;;;;;;;;5078553;28;20423;-71
2022/11/26 00:49:07;;;;;;;122.03;86.53;;;;;;;;;;5080251;28;20081;-72
2022/11/26 00:51:32;;;;;;;112.53;82.15;;;;;;;;;;5081153;28;20031;-74
2022/11/26 00:53:59;;;;;;;125.50;92.97;;;;;;;;;;5082711;28;20042;-73
2022/11/26 00:56:25;;;;;;;168.85;118.47;;;;;;;;;;5081638;28;20523;-72
2022/11/26 00:58:50;;;;;;;204.65;136.18;;;;;;;;;;5082996;28;20103;-72
2022/11/26 01:01:20;;;;;;;230.98;157.48;;;;;;;;;;5079596;28;20497;-72
2022/11/26 01:03:45;;;;;;;250.45;178.73;;;;;;;;;;5081275;28;20513;-71
2022/11/26 01:06:16;;;;;;;235.88;168.65;;;;;;;;;;5078847;28;20031;-71
2022/11/26 01:08:42;;;;;;;215.02;148.93;;;;;;;;;;5080721;28;20060;-72
2022/11/26 01:11:10;;;;;;;214.68;141.57;;;;;;;;;;5079186;28;20128;-71
2022/11/26 01:13:35;;;;;;;195.05;132.82;;;;;;;;;;5078530;28;20035;-73
2022/11/26 01:16:03;;;;;;;229.75;157.55;;;;;;;;;;5078281;28;20367;-72
2022/11/26 01:18:32;;;;;;;228.40;151.65;;;;;;;;;;5081244;28;20024;-71
2022/11/26 01:20:58;;;;;;;216.52;144.82;;;;;;;;;;5081018;28;20406;-71
2022/11/26 01:23:23;;;;;;;158.30;107.10;;;;;;;;;;5079372;28;20036;-71
2022/11/26 01:25:48;;;;;;;141.23;100.60;;;;;;;;;;5077408;28;20028;-72
2022/11/26 01:28:15;;;;;;;151.88;106.72;;;;;;;;;;5080636;28;20343;-74
2022/11/26 01:30:41;;;;;;;202.35;144.20;;;;;;;;;;5081943;28;20042;-72
2022/11/26 01:33:06;;;;;;;181.82;128.25;;;;;;;;;;5080008;28;20035;-74
2022/11/26 01:35:32;;;;;;;158.43;112.35;;;;;;;;;;5081567;28;20028;-72
2022/11/26 01:37:57;;;;;;;179.73;129.13;;;;;;;;;;5077082;28;20035;-72
2022/11/26 01:40:22;;;;;;;181.70;129.43;;;;;;;;;;5078248;28;20028;-71
2022/11/26 01:42:50;;;;;;;232.38;153.70;;;;;;;;;;5079076;28;20447;-72
2022/11/26 01:45:16;;;;;;;256.42;176.32;;;;;;;;;;5077531;28;20040;-74
2022/11/26 01:47:42;;;;;;;205.13;138.48;;;;;;;;;;5074025;28;20089;-72
2022/11/26 01:50:25;;;;;;;192.77;129.25;;;;;;;;;;5076771;28;20055;-72
2022/11/26 01:52:51;;;;;;;187.35;137.40;;;;;;;;;;5080485;28;20020;-72
2022/11/26 01:55:16;;;;;;;195.13;137.45;;;;;;;;;;5078448;28;20356;-73
2022/11/26 01:57:42;;;;;;;194.10;137.85;;;;;;;;;;5079463;28;20496;-73
2022/11/26 02:00:08;;;;;;;198.98;145.77;;;;;;;;;;5077058;28;20024;-74
2022/11/26 02:02:33;;;;;;;175.15;126.40;;;;;;;;;;5077936;28;20520;-74
2022/11/26 02:05:06;;;;;;;184.20;132.30;;;;;;;;;;5078678;28;20359;-73
2022/11/26 02:07:32;;;;;;;143.40;101.00;;;;;;;;;;5080849;28;20151;-72
2022/11/26 02:09:57;;;;;;;141.73;99.47;;;;;;;;;;5078810;28;20498;-72
2022/11/26 02:12:22;;;;;;;146.63;103.50;;;;;;;;;;5079111;28;20079;-72
2022/11/26 02:14:48;;;;;;;109.45;78.15;;;;;;;;;;5080270;28;20077;-73
2022/11/26 02:17:31;;;;;;;50.58;39.63;;;;;;;;;;5077122;28;20448;-74
2022/11/26 02:20:05;;;;;;;38.25;30.55;;;;;;;;;;5079558;28;20036;-74
2022/11/26 02:22:39;;;;;;;33.25;27.98;;;;;;;;;;5077086;28;20076;-73
2022/11/26 02:25:08;;;;;;;84.75;66.10;;;;;;;;;;5078023;28;20035;-72
2022/11/26 02:27:36;;;;;;;114.95;83.40;;;;;;;;;;5078863;28;20111;-74
2022/11/26 02:30:06;;;;;;;113.90;79.65;;;;;;;;;;5080664;28;20032;-72
2022/11/26 02:32:52;;;;;;;113.63;90.30;;;;;;;;;;5078476;28;20036;-74
2022/11/26 02:35:35;;;;;;;104.45;78.15;;;;;;;;;;5057914;28;20371;-72
2022/11/26 02:38:06;;;;;;;110.50;79.43;;;;;;;;;;5077167;28;20032;-73
2022/11/26 02:40:31;;;;;;;110.30;85.53;;;;;;;;;;5077309;28;20028;-72
2022/11/26 02:42:57;;;;;;;92.72;68.03;;;;;;;;;;5077320;28;20028;-73
2022/11/26 02:45:24;;;;;;;96.28;71.70;;;;;;;;;;5062718;28;20031;-73
2022/11/26 02:47:51;;;;;;;92.55;67.18;;;;;;;;;;5076849;28;20462;-72
2022/11/26 02:50:23;;;;;;;98.15;72.80;;;;;;;;;;5079051;28;20046;-72
2022/11/26 02:52:49;;;;;;;102.03;74.75;;;;;;;;;;5077763;28;20023;-72
2022/11/26 02:55:17;;;;;;;106.43;81.53;;;;;;;;;;5077520;28;20032;-74
2022/11/26 02:57:45;;;;;;;101.18;78.07;;;;;;;;;;5078708;28;20419;-72
2022/11/26 03:00:11;;;;;;;102.05;78.13;;;;;;;;;;5076773;28;20038;-73
2022/11/26 03:02:43;;;;;;;110.28;81.10;;;;;;;;;;5079051;28;20355;-72
2022/11/26 03:05:09;;;;;;;142.23;103.07;;;;;;;;;;5076381;28;20418;-73
2022/11/26 03:07:35;;;;;;;140.82;102.55;;;;;;;;;;5076521;28;20111;-72
2022/11/26 03:10:01;;;;;;;131.75;101.60;;;;;;;;;;5077640;28;20059;-72
2022/11/26 03:12:26;;;;;;;116.32;85.88;;;;;;;;;;5077584;28;20430;-73
2022/11/26 03:14:52;;;;;;;98.88;78.18;;;;;;;;;;5078404;28;20067;-72
2022/11/26 03:17:18;;;;;;;100.32;78.03;;;;;;;;;;5079037;28;20113;-73
2022/11/26 03:19:43;;;;;;;96.45;75.82;;;;;;;;;;5077970;28;20075;-73
2022/11/26 03:22:09;;;;;;;84.55;65.50;;;;;;;;;;5079815;28;20031;-72
2022/11/26 03:24:35;;;;;;;77.03;58.25;;;;;;;;;;5076171;28;20028;-74
2022/11/26 03:27:00;;;;;;;109.35;85.22;;;;;;;;;;5079932;28;20024;-72
2022/11/26 03:29:25;;;;;;;109.10;84.20;;;;;;;;;;5078791;28;20028;-73
2022/11/26 03:31:51;;;;;;;102.75;78.15;;;;;;;;;;5078678;28;20032;-74
2022/11/26 03:34:16;;;;;;;105.85;80.97;;;;;;;;;;5076057;28;20016;-73
2022/11/26 03:36:42;;;;;;;102.05;72.63;;;;;;;;;;5078046;28;20471;-72
2022/11/26 03:39:07;;;;;;;73.32;55.60;;;;;;;;;;5077065;28;20031;-72
2022/11/26 03:41:32;;;;;;;82.30;62.78;;;;;;;;;;5078442;28;20024;-72
2022/11/26 03:43:58;;;;;;;77.78;59.28;;;;;;;;;;5078745;28;20111;-72
2022/11/26 03:46:23;;;;;;;87.05;64.72;;;;;;;;;;5078685;28;20027;-72
2022/11/26 03:48:48;;;;;;;88.10;66.90;;;;;;;;;;5077768;28;20028;-72
2022/11/26 03:51:14;;;;;;;89.88;66.85;;;;;;;;;;5080560;28;20016;-73
2022/11/26 03:53:39;;;;;;;99.25;72.60;;;;;;;;;;5078574;28;20027;-73
2022/11/26 03:56:05;;;;;;;92.18;70.07;;;;;;;;;;5078965;28;20044;-73
2022/11/26 03:58:30;;;;;;;85.00;66.22;;;;;;;;;;5079275;28;20494;-74
2022/11/26 04:00:55;;;;;;;98.00;74.30;;;;;;;;;;5080762;28;20328;-74
2022/11/26 04:03:21;;;;;;;87.38;65.50;;;;;;;;;;5083079;28;20111;-73
2022/11/26 04:05:46;;;;;;;97.85;74.32;;;;;;;;;;5082515;28;20055;-73
2022/11/26 04:08:12;;;;;;;93.80;73.53;;;;;;;;;;5080544;28;20115;-73
2022/11/26 04:10:37;;;;;;;94.57;69.00;;;;;;;;;;5083701;28;20052;-73
2022/11/26 04:13:03;;;;;;;83.43;65.43;;;;;;;;;;5081936;28;20451;-73
2022/11/26 04:15:28;;;;;;;78.53;56.97;;;;;;;;;;5081126;28;20101;-74
2022/11/26 04:17:53;;;;;;;69.93;50.70;;;;;;;;;;5078046;28;20032;-73
2022/11/26 04:20:19;;;;;;;60.20;46.95;;;;;;;;;;5082260;28;20048;-73
2022/11/26 04:22:44;;;;;;;57.67;42.00;;;;;;;;;;5079694;28;20513;-75
2022/11/26 04:25:09;;;;;;;61.58;45.80;;;;;;;;;;5080526;28;20474;-74
2022/11/26 04:27:35;;;;;;;76.00;52.28;;;;;;;;;;5080815;28;20538;-73
2022/11/26 04:30:00;;;;;;;78.03;55.05;;;;;;;;;;5081859;28;20020;-73
2022/11/26 04:32:25;;;;;;;93.47;63.88;;;;;;;;;;5081216;28;20038;-72
2022/11/26 04:34:51;;;;;;;94.03;63.80;;;;;;;;;;5081361;28;20056;-75
2022/11/26 04:37:16;;;;;;;101.10;69.80;;;;;;;;;;5079781;28;20054;-73
2022/11/26 04:39:41;;;;;;;113.70;76.75;;;;;;;;;;5080318;28;20024;-73
2022/11/26 04:42:07;;;;;;;106.53;80.85;;;;;;;;;;5078118;28;20463;-73
2022/11/26 04:44:32;;;;;;;104.38;76.40;;;;;;;;;;5080055;28;20375;-74
2022/11/26 04:46:58;;;;;;;100.63;72.20;;;;;;;;;;5081791;28;20032;-73
2022/11/26 04:49:23;;;;;;;103.03;74.22;;;;;;;;;;5078806;28;20070;-74
2022/11/26 04:51:48;;;;;;;108.13;82.60;;;;;;;;;;5077558;28;20333;-73
2022/11/26 04:54:14;;;;;;;133.27;101.25;;;;;;;;;;5079675;28;20024;-73
2022/11/26 04:56:39;;;;;;;89.88;73.28;;;;;;;;;;5078593;28;20443;-73
2022/11/26 04:59:04;;;;;;;145.25;107.03;;;;;;;;;;5077258;28;20033;-73
2022/11/26 05:01:30;;;;;;;103.38;76.50;;;;;;;;;;5078766;28;20520;-73
2022/11/26 05:03:55;;;;;;;235.93;132.30;;;;;;;;;;5079568;28;20016;-75
2022/11/26 05:06:20;;;;;;;450.13;217.27;;;;;;;;;;5078860;28;20093;-74
2022/11/26 05:08:46;;;;;;;443.25;296.50;;;;;;;;;;5078351;28;20086;-73
2022/11/26 05:11:11;;;;;;;387.75;256.90;;;;;;;;;;5079986;28;20024;-74
2022/11/26 05:13:36;;;;;;;366.15;241.30;;;;;;;;;;5079012;28;20039;-74
2022/11/26 05:16:02;;;;;;;468.13;314.52;;;;;;;;;;5081693;28;20067;-73
2022/11/26 05:18:28;;;;;;;501.23;343.75;;;;;;;;;;5080931;28;20023;-73
2022/11/26 05:20:53;;;;;;;1004.45;667.63;;;;;;;;;;5078704;28;20105;-74
2022/11/26 05:23:18;;;;;;;780.72;553.72;;;;;;;;;;5080447;28;20455;-73
2022/11/26 05:25:43;;;;;;;464.33;334.58;;;;;;;;;;5076403;28;20427;-73
2022/11/26 05:28:09;;;;;;;419.80;301.05;;;;;;;;;;5082241;28;20077;-72
2022/11/26 05:30:35;;;;;;;237.30;171.95;;;;;;;;;;5079053;28;20020;-75
2022/11/26 05:33:00;;;;;;;210.07;155.73;;;;;;;;;;5081066;28;20051;-73
2022/11/26 05:35:26;;;;;;;135.80;98.35;;;;;;;;;;5079985;28;20482;-73
2022/11/26 05:37:51;;;;;;;111.50;88.45;;;;;;;;;;5078177;28;20038;-74
2022/11/26 05:40:16;;;;;;;140.95;107.75;;;;;;;;;;5081266;28;20038;-74
2022/11/26 05:42:42;;;;;;;110.35;85.50;;;;;;;;;;5078722;28;20059;-73
2022/11/26 05:45:07;;;;;;;174.13;124.65;;;;;;;;;;5079670;28;20040;-72
2022/11/26 05:47:33;;;;;;;683.42;420.73;;;;;;;;;;5079336;28;20027;-73
2022/11/26 05:49:58;;;;;;;267.58;188.07;;;;;;;;;;5080054;28;20084;-73
2022/11/26 05:52:23;;;;;;;238.32;180.82;;;;;;;;;;5079261;28;20013;-73
2022/11/26 05:54:49;;;;;;;153.88;122.07;;;;;;;;;;5080905;28;20024;-74
2022/11/26 05:57:14;;;;;;;194.02;149.35;;;;;;;;;;5079220;28;20773;-74
2022/11/26 05:59:40;;;;;;;319.30;269.10;;;;;;;;;;5080424;28;20113;-74
2022/11/26 06:02:05;;;;;;;232.07;185.75;;;;;;;;;;5075821;28;20139;-73
2022/11/26 06:04:30;;;;;;;284.30;230.45;;;;;;;;;;5079951;28;20064;-73
2022/11/26 06:06:56;;;;;;;167.75;126.20;;;;;;;;;;5077470;28;20428;-74
2022/11/26 06:09:21;;;;;;;117.75;90.03;;;;;;;;;;5079605;28;20049;-73
2022/11/26 06:11:49;;;;;;;123.97;92.72;;;;;;;;;;5078112;28;20035;-73
2022/11/26 06:14:15;;;;;;;152.80;117.05;;;;;;;;;;5079595;28;20024;-74
2022/11/26 06:16:40;;;;;;;154.63;114.65;;;;;;;;;;5079814;28;20085;-73
2022/11/26 06:19:06;;;;;;;118.53;93.63;;;;;;;;;;5077789;28;20033;-73
2022/11/26 06:21:31;;;;;;;111.13;82.45;;;;;;;;;;5078486;28;20035;-75
2022/11/26 06:23:56;;;;;;;126.47;91.10;;;;;;;;;;5062891;28;20024;-73
2022/11/26 06:26:22;;;;;;;127.57;89.88;;;;;;;;;;5078082;28;20031;-73
2022/11/26 06:28:47;;;;;;;162.50;116.28;;;;;;;;;;5080048;28;20451;-73
2022/11/26 06:31:12;;;;;;;167.25;119.00;;;;;;;;;;5080343;28;20051;-74
2022/11/26 06:33:38;;;;;;;166.13;121.22;;;;;;;;;;5080435;28;20126;-73
2022/11/26 06:36:03;;;;;;;184.23;138.95;;;;;;;;;;5078864;28;20973;-73
2022/11/26 06:38:29;;;;;;;308.83;226.25;;;;;;;;;;5078312;28;20077;-74
2022/11/26 06:41:01;;;;;;;311.02;230.55;;;;;;;;;;5079948;28;20028;-73
2022/11/26 06:43:27;;;;;;;296.02;217.63;;;;;;;;;;5073200;28;20473;-73
2022/11/26 06:45:53;;;;;;;289.05;214.00;;;;;;;;;;5078346;28;20036;-74
2022/11/26 06:48:21;;;;;;;185.98;144.77;;;;;;;;;;5080616;28;20028;-74
2022/11/26 06:50:46;;;;;;;164.93;132.50;;;;;;;;;;5079697;28;20056;-73
2022/11/26 06:53:12;;;;;;;156.60;128.20;;;;;;;;;;5079004;28;20043;-74
2022/11/26 06:55:37;;;;;;;139.25;111.10;;;;;;;;;;5078986;28;20059;-73
2022/11/26 06:58:02;;;;;;;135.57;105.90;;;;;;;;;;5079276;28;20085;-73
2022/11/26 07:00:28;;;;;;;145.73;113.15;;;;;;;;;;5079314;28;20020;-73
2022/11/26 07:02:53;;;;;;;176.00;138.68;;;;;;;;;;5077077;28;20024;-74
2022/11/26 07:05:18;;;;;;;174.98;143.43;;;;;;;;;;5074527;28;20451;-73
2022/11/26 07:07:43;;;;;;;241.75;196.63;;;;;;;;;;5078266;28;20390;-73
2022/11/26 07:10:09;;;;;;;292.00;227.60;;;;;;;;;;5080182;28;20028;-73
2022/11/26 07:12:34;;;;;;;325.98;263.23;;;;;;;;;;5080298;28;20122;-73
2022/11/26 07:15:00;;;;;;;343.73;279.35;;;;;;;;;;5078534;28;20028;-73
2022/11/26 07:17:26;;;;;;;328.35;293.05;;;;;;;;;;5078447;28;20455;-73
2022/11/26 07:19:51;;;;;;;294.92;263.20;;;;;;;;;;5074381;28;20040;-72
2022/11/26 07:22:17;;;;;;;268.58;239.15;;;;;;;;;;5078587;28;20523;-73
2022/11/26 07:24:42;;;;;;;298.05;262.50;;;;;;;;;;5077489;28;20020;-72
2022/11/26 07:27:07;;;;;;;260.00;225.68;;;;;;;;;;5077384;28;20035;-72
2022/11/26 07:29:33;;;;;;;222.45;198.05;;;;;;;;;;5077391;28;20110;-73
2022/11/26 07:31:58;;;;;;;180.88;156.32;;;;;;;;;;5078721;28;20024;-72
2022/11/26 07:34:24;;;;;;;137.05;122.00;;;;;;;;;;5078390;28;20028;-72
2022/11/26 07:36:49;;;;;;;138.80;122.68;;;;;;;;;;5082494;28;20099;-72
2022/11/26 07:39:14;;;;;;;114.70;101.13;;;;;;;;;;5081503;28;20031;-72
2022/11/26 07:41:40;;;;;;;100.55;89.68;;;;;;;;;;5081006;28;20056;-72
2022/11/26 07:44:05;;;;;;;94.28;84.65;;;;;;;;;;5081680;28;20029;-72
2022/11/26 07:46:30;;;;;;;80.63;71.97;;;;;;;;;;5078104;28;20431;-73
2022/11/26 07:48:56;;;;;;;95.05;85.00;;;;;;;;;;5077196;28;20070;-74
2022/11/26 07:51:25;;;;;;;97.78;87.38;;;;;;;;;;5082209;28;20035;-72
2022/11/26 07:53:51;;;;;;;84.97;76.10;;;;;;;;;;5082222;28;20773;-72
2022/11/26 07:56:17;;;;;;;71.95;64.20;;;;;;;;;;5082105;28;20036;-72
2022/11/26 07:58:42;;;;;;;69.25;58.75;;;;;;;;;;5082898;28;20031;-71
2022/11/26 08:01:09;;;;;;;68.55;61.25;;;;;;;;;;5081087;28;20435;-73
2022/11/26 08:03:41;;;;;;;64.10;57.17;;;;;;;;;;5079644;28;20074;-72
2022/11/26 08:06:07;;;;;;;64.80;56.72;;;;;;;;;;5080956;28;20028;-72
2022/11/26 08:08:34;;;;;;;77.38;67.63;;;;;;;;;;5083175;28;20512;-73
2022/11/26 08:10:59;;;;;;;71.68;60.20;;;;;;;;;;5064882;28;21160;-70
2022/11/26 08:13:24;;;;;;;84.65;69.05;;;;;;;;;;5082291;28;20032;-71
2022/11/26 08:15:50;;;;;;;86.50;74.18;;;;;;;;;;5081236;28;20538;-71
2022/11/26 08:18:15;;;;;;;58.60;49.22;;;;;;;;;;5083896;28;20058;-71
2022/11/26 08:20:40;;;;;;;67.50;60.08;;;;;;;;;;5078897;28;20097;-72
2022/11/26 08:23:06;;;;;;;64.20;56.40;;;;;;;;;;5081258;28;20031;-71
2022/11/26 08:25:31;;;;;;;44.67;39.88;;;;;;;;;;5082937;28;20032;-72
2022/11/26 08:27:56;;;;;;;45.35;40.28;;;;;;;;;;5081973;28;20059;-71
2022/11/26 08:30:22;;;;;;;36.67;32.85;;;;;;;;;;5077085;28;20031;-72
2022/11/26 08:32:47;;;;;;;57.95;51.90;;;;;;;;;;5082594;28;20031;-71
2022/11/26 08:35:12;;;;;;;59.45;53.22;;;;;;;;;;5077146;28;20057;-71
2022/11/26 08:37:38;;;;;;;34.60;30.70;;;;;;;;;;5081171;28;20766;-72
2022/11/26 08:40:03;;;;;;;47.55;42.58;;;;;;;;;;5081273;28;20028;-70
2022/11/26 08:42:29;;;;;;;47.03;42.05;;;;;;;;;;5079348;28;20020;-71
2022/11/26 08:44:55;;;;;;;25.80;23.00;;;;;;;;;;5081794;28;20023;-71
2022/11/26 08:47:20;;;;;;;37.30;33.50;;;;;;;;;;5082473;28;20089;-72
2022/11/26 08:49:48;;;;;;;56.60;48.80;;;;;;;;;;5083066;28;20016;-71
2022/11/26 08:52:13;;;;;;;76.97;64.05;;;;;;;;;;5079563;28;20447;-71
2022/11/26 08:54:39;;;;;;;76.35;64.10;;;;;;;;;;5082231;28;20039;-72
2022/11/26 08:57:04;;;;;;;28.77;25.08;;;;;;;;;;5083629;28;20036;-71
2022/11/26 08:59:29;;;;;;;58.75;48.80;;;;;;;;;;5079739;28;20024;-71
2022/11/26 09:01:55;;;;;;;45.40;40.53;;;;;;;;;;5082997;28;20456;-71
2022/11/26 09:04:20;;;;;;;34.33;30.75;;;;;;;;;;5080503;28;20040;-71
2022/11/26 09:06:46;;;;;;;23.85;21.45;;;;;;;;;;5080842;28;20028;-71
2022/11/26 09:09:11;;;;;;;26.13;23.17;;;;;;;;;;5077489;28;20028;-74
2022/11/26 09:11:38;;;;;;;28.80;25.70;;;;;;;;;;5079654;28;20101;-72
2022/11/26 09:14:04;;;;;;;23.38;20.92;;;;;;;;;;5082804;28;20039;-71
2022/11/26 09:16:29;;;;;;;31.73;24.30;;;;;;;;;;5082698;28;20432;-73
2022/11/26 09:18:55;;;;;;;29.15;23.73;;;;;;;;;;5079586;28;20056;-70
2022/11/26 09:21:20;;;;;;;35.13;27.95;;;;;;;;;;5080745;28;20098;-72
2022/11/26 09:23:46;;;;;;;21.58;18.75;;;;;;;;;;5062468;28;20032;-73
2022/11/26 09:26:11;;;;;;;16.52;14.70;;;;;;;;;;5080690;28;20051;-72
2022/11/26 09:28:38;;;;;;;17.60;14.25;;;;;;;;;;5081070;28;20044;-73
2022/11/26 09:31:03;;;;;;;25.67;22.25;;;;;;;;;;5081275;28;20083;-71
2022/11/26 09:33:28;;;;;;;22.73;19.75;;;;;;;;;;5081308;28;20052;-72
2022/11/26 09:36:01;;;;;;;17.92;16.10;;;;;;;;;;5079617;28;20032;-71
2022/11/26 09:38:27;;;;;;;31.02;26.70;;;;;;;;;;5081231;28;20038;-73
2022/11/26 09:41:04;;;;;;;21.65;18.55;;;;;;;;;;5080561;28;20016;-72
2022/11/26 09:43:41;;;;;;;20.17;17.55;;;;;;;;;;5078963;28;20027;-71
2022/11/26 09:46:09;;;;;;;25.58;21.80;;;;;;;;;;5082228;28;20035;-72
2022/11/26 09:48:35;;;;;;;29.25;26.25;;;;;;;;;;5082067;28;20080;-72
2022/11/26 09:51:07;;;;;;;27.80;25.00;;;;;;;;;;5080475;28;20019;-71
2022/11/26 09:53:39;;;;;;;50.53;40.40;;;;;;;;;;5080463;28;20028;-70
2022/11/26 09:56:08;;;;;;;39.55;33.25;;;;;;;;;;5079332;28;20043;-72
2022/11/26 09:58:34;;;;;;;;;;;;;;;;;;5080566;28;20025;-72
2022/11/26 10:00:59;;;;;;;29.97;26.17;;;;;;;;;;5079623;28;19965;-70
2022/11/26 10:03:32;;;;;;;26.35;23.42;;;;;;;;;;5078942;28;20028;-71
2022/11/26 10:05:58;;;;;;;22.65;20.25;;;;;;;;;;5081211;28;20032;-71
2022/11/26 10:08:42;;;;;;;23.45;21.02;;;;;;;;;;5078752;28;20024;-70
2022/11/26 10:11:26;;;;;;;19.88;16.52;;;;;;;;;;5079522;28;20028;-71
2022/11/26 10:13:54;;;;;;;29.95;26.90;;;;;;;;;;5077400;28;20359;-71
2022/11/26 10:16:28;;;;;;;23.13;20.75;;;;;;;;;;5079118;28;20028;-71
2022/11/26 10:19:12;;;;;;;49.13;43.75;;;;;;;;;;5081301;28;20039;-71
2022/11/26 10:21:50;;;;;;;25.45;22.50;;;;;;;;;;5140801;27;20429;-73
2022/11/26 10:24:19;;;;;;;31.58;28.17;;;;;;;;;;5122682;27;20362;-73
2022/11/26 10:26:45;;;;;;;58.42;48.60;;;;;;;;;;5123007;27;20076;-72
2022/11/26 10:29:32;;;;;;;54.33;46.15;;;;;;;;;;5120866;27;20020;-72
2022/11/26 10:32:00;;;;;;;36.22;32.33;;;;;;;;;;5123271;27;20027;-71
2022/11/26 10:34:41;;;;;;;32.55;29.02;;;;;;;;;;5122632;27;20023;-71
2022/11/26 10:37:07;;;;;;;24.10;21.55;;;;;;;;;;5120079;27;20036;-71
2022/11/26 10:39:32;;;;;;;19.95;17.05;;;;;;;;;;5122723;27;20022;-71
2022/11/26 10:42:02;;;;;;;25.08;19.48;;;;;;;;;;5119495;27;20446;-71
2022/11/26 10:44:38;;;;;;;14.10;11.80;;;;;;;;;;5121055;27;20027;-71
2022/11/26 10:47:24;;;;;;;20.48;16.17;;;;;;;;;;5119742;27;20143;-71
2022/11/26 10:49:51;;;;;;;9.73;8.73;;;;;;;;;;5120333;27;20118;-72
2022/11/26 10:52:20;;;;;;;19.23;16.25;;;;;;;;;;5123376;27;20019;-71
2022/11/26 10:54:46;;;;;;;22.05;19.05;;;;;;;;;;5121628;27;20027;-71
2022/11/26 10:57:14;;;;;;;19.20;16.90;;;;;;;;;;5122457;27;20041;-72
2022/11/26 10:59:42;;;;;;;22.55;17.33;;;;;;;;;;5121530;27;20042;-72
2022/11/26 11:02:26;;;;;;;16.52;12.88;;;;;;;;;;5123614;27;20012;-71
2022/11/26 11:04:53;;;;;;;13.02;11.07;;;;;;;;;;5119566;27;20031;-72
2022/11/26 11:07:36;;;;;;;9.15;8.25;;;;;;;;;;5120653;27;20031;-71
2022/11/26 11:10:04;;;;;;;18.90;17.10;;;;;;;;;;5119858;27;20058;-72
2022/11/26 11:12:30;;;;;;;24.95;20.00;;;;;;;;;;5121351;27;20042;-71
2022/11/26 11:15:09;;;;;;;21.92;16.50;;;;;;;;;;5119110;27;20420;-70
2022/11/26 11:17:36;;;;;;;27.60;20.27;;;;;;;;;;5121290;27;20027;-71
2022/11/26 11:20:22;;;;;;;24.90;19.67;;;;;;;;;;5118864;27;20071;-72
2022/11/26 11:22:55;;;;;;;32.08;24.38;;;;;;;;;;5087653;27;20468;-71
2022/11/26 11:25:22;;;;;;;27.65;20.05;;;;;;;;;;5120937;27;20101;-72
2022/11/26 11:27:48;;;;;;;36.72;29.65;;;;;;;;;;5119084;27;20015;-71
2022/11/26 11:30:27;;;;;;;54.95;42.83;;;;;;;;;;5119729;27;20019;-71
2022/11/26 11:32:56;;;;;;;53.58;39.45;;;;;;;;;;5107978;27;20115;-72
2022/11/26 11:35:29;;;;;;;16.35;14.73;;;;;;;;;;5106256;27;20032;-71
2022/11/26 11:37:55;;;;;;;25.20;21.13;;;;;;;;;;5105671;27;20046;-71
2022/11/26 11:40:26;;;;;;;25.60;21.33;;;;;;;;;;5104474;27;20105;-73
2022/11/26 11:42:53;;;;;;;44.20;34.53;;;;;;;;;;5105886;27;20380;-71
2022/11/26 11:45:27;;;;;;;28.00;22.00;;;;;;;;;;5107957;27;20023;-72
2022/11/26 11:47:55;;;;;;;36.45;27.27;;;;;;;;;;5104950;27;20023;-72
2022/11/26 11:50:28;;;;;;;34.20;27.65;;;;;;;;;;5091273;27;20122;-71
2022/11/26 11:52:56;;;;;;;58.80;39.33;;;;;;;;;;5106635;27;20023;-72
2022/11/26 11:55:21;;;;;;;30.05;22.95;;;;;;;;;;5105062;27;20028;-71
2022/11/26 11:58:02;;;;;;;86.95;55.10;;;;;;;;;;5106247;27;20035;-71
2022/11/26 12:00:30;;;;;;;52.80;37.17;;;;;;;;;;5104898;27;20019;-71
2022/11/26 12:03:01;;;;;;;90.57;65.57;;;;;;;;;;5107298;27;20024;-73
2022/11/26 12:05:29;;;;;;;116.57;94.65;;;;;;;;;;5104932;27;20450;-71
2022/11/26 12:07:55;;;;;;;64.25;50.42;;;;;;;;;;5106911;27;20543;-71
2022/11/26 12:10:24;;;;;;;79.90;56.83;;;;;;;;;;5106129;27;20171;-71
2022/11/26 12:12:55;;;;;;;63.88;54.70;;;;;;;;;;5105033;27;20015;-72
2022/11/26 12:15:24;;;;;;;29.25;24.70;;;;;;;;;;5105027;27;20445;-71
2022/11/26 12:17:52;;;;;;;21.27;19.07;;;;;;;;;;5106484;27;20020;-72
2022/11/26 12:20:20;;;;;;;48.35;38.25;;;;;;;;;;5106904;27;20292;-71
2022/11/26 12:23:09;;;;;;;32.17;26.75;;;;;;;;;;5104818;27;20019;-71
2022/11/26 12:25:35;;;;;;;25.75;23.02;;;;;;;;;;5092365;27;20039;-71
2022/11/26 12:28:04;;;;;;;28.90;25.77;;;;;;;;;;5106961;27;20019;-72
2022/11/26 12:30:35;;;;;;;23.65;21.13;;;;;;;;;;5106963;27;20051;-71
2022/11/26 12:33:08;;;;;;;21.98;19.63;;;;;;;;;;5104547;27;20077;-71
2022/11/26 12:35:34;;;;;;;35.92;28.52;;;;;;;;;;5105410;27;20027;-72
2022/11/26 12:38:12;;;;;;;38.03;22.45;;;;;;;;;;5105283;27;20143;-72
2022/11/26 12:40:43;;;;;;;36.25;23.63;;;;;;;;;;5102980;27;20027;-71
2022/11/26 12:43:12;;;;;;;26.38;20.65;;;;;;;;;;5103029;27;20093;-72
2022/11/26 12:45:56;;;;;;;29.80;22.02;;;;;;;;;;5104472;27;20028;-72
2022/11/26 12:48:34;;;;;;;24.88;22.20;;;;;;;;;;5106656;27;20035;-71
2022/11/26 12:51:18;;;;;;;42.58;34.50;;;;;;;;;;5107808;27;20042;-72
2022/11/26 12:53:48;;;;;;;39.72;33.45;;;;;;;;;;5106839;27;20102;-70
2022/11/26 12:56:14;;;;;;;30.23;26.67;;;;;;;;;;5105947;27;21414;-71
2022/11/26 12:58:42;;;;;;;31.17;27.60;;;;;;;;;;5104724;27;20036;-71
2022/11/26 13:01:08;;;;;;;33.08;27.15;;;;;;;;;;5105611;27;20709;-71
2022/11/26 13:03:34;;;;;;;51.03;39.85;;;;;;;;;;5106836;27;20148;-70
2022/11/26 13:06:14;;;;;;;57.92;45.50;;;;;;;;;;5088319;27;20056;-71
2022/11/26 13:08:45;;;;;;;52.25;35.72;;;;;;;;;;5107252;27;20486;-72
2022/11/26 13:11:19;;;;;;;38.35;30.92;;;;;;;;;;5104209;27;20045;-71
2022/11/26 13:14:11;;;;;;;43.92;34.28;;;;;;;;;;5103886;27;20153;-70
2022/11/26 13:16:39;;;;;;;41.75;35.17;;;;;;;;;;5011172;28;20052;-71
2022/11/26 13:19:10;;;;;;;29.65;26.13;;;;;;;;;;5012108;28;20071;-72
2022/11/26 13:21:36;;;;;;;30.88;27.58;;;;;;;;;;5011154;28;20076;-72
2022/11/26 13:24:07;;;;;;;31.35;27.02;;;;;;;;;;5012106;28;20034;-72
2022/11/26 13:26:33;;;;;;;32.90;25.05;;;;;;;;;;5012489;28;20061;-72
2022/11/26 13:29:16;;;;;;;35.65;29.67;;;;;;;;;;5010704;28;20069;-72
2022/11/26 13:31:41;;;;;;;34.08;30.30;;;;;;;;;;5008298;28;20044;-71
2022/11/26 13:34:16;;;;;;;32.88;29.38;;;;;;;;;;5008231;28;20050;-70
2022/11/26 13:36:42;;;;;;;38.45;32.72;;;;;;;;;;5012097;28;20060;-72
2022/11/26 13:39:07;;;;;;;26.33;23.50;;;;;;;;;;5011810;28;20033;-71
2022/11/26 13:41:32;;;;;;;37.28;30.02;;;;;;;;;;5001640;28;20126;-71
2022/11/26 13:43:58;;;;;;;33.70;28.67;;;;;;;;;;5011722;28;20123;-71
2022/11/26 13:46:25;;;;;;;27.02;23.95;;;;;;;;;;5013284;28;20045;-70
2022/11/26 13:49:03;;;;;;;29.83;25.48;;;;;;;;;;5010082;28;20072;-71
2022/11/26 13:51:47;;;;;;;30.92;26.90;;;;;;;;;;5006312;28;20461;-70
2022/11/26 13:54:24;;;;;;;29.75;26.55;;;;;;;;;;5075982;27;20031;-72
2022/11/26 13:56:56;;;;;;;38.35;34.13;;;;;;;;;;5102704;27;20023;-71
2022/11/26 13:59:23;;;;;;;46.38;39.58;;;;;;;;;;5103439;27;20095;-71
2022/11/26 14:01:49;;;;;;;48.25;42.13;;;;;;;;;;5104545;27;20035;-72
2022/11/26 14:04:34;;;;;;;47.63;42.55;;;;;;;;;;5102817;27;20035;-71
2022/11/26 14:07:02;;;;;;;44.42;39.05;;;;;;;;;;5103845;27;20083;-71
2022/11/26 14:09:40;;;;;;;41.08;35.90;;;;;;;;;;5105464;28;20458;-71
2022/11/26 14:12:05;;;;;;;52.78;44.55;;;;;;;;;;5102860;28;20442;-71